Time,TemperatureF,DewpointF,PressureIn,WindDirection,WindDirectionDegrees,WindSpeedMPH,WindSpeedGustMPH,Humidity,HourlyPrecipIn,Conditions,Clouds,dailyrainin,SoftwareType,DateUTC
2013-07-11 00:02:00,78.0,76.0,29.81,North,0,0.0,3.0,94,0.00,,,0.13,,2013-07-11 04:02:00,
2013-07-11 00:32:00,77.0,75.0,29.81,North,0,0.0,1.0,94,0.00,,,0.13,,2013-07-11 04:32:00,
2013-07-11 00:42:00,77.0,75.0,29.82,North,0,0.0,1.0,94,0.00,,,0.13,,2013-07-11 04:42:00,
2013-07-11 00:53:00,77.0,75.0,29.82,North,0,0.0,0.0,94,0.00,,,0.13,,2013-07-11 04:53:00,
2013-07-11 01:02:00,77.0,75.0,29.82,North,0,0.0,1.0,94,0.00,,,0.13,,2013-07-11 05:02:00,
2013-07-11 01:22:00,76.0,74.0,29.82,North,0,0.0,1.0,95,0.00,,,0.13,,2013-07-11 05:22:00,
2013-07-11 01:32:00,76.0,74.0,29.82,North,0,0.0,1.0,95,0.00,,,0.13,,2013-07-11 05:32:00,
2013-07-11 01:43:00,76.0,74.0,29.82,North,0,0.0,1.0,95,0.00,,,0.13,,2013-07-11 05:43:00,
2013-07-11 01:52:00,75.0,73.0,29.82,North,0,0.0,4.0,94,0.00,,,0.13,,2013-07-11 05:52:00,
2013-07-11 02:01:00,75.0,73.0,29.82,North,0,0.0,4.0,94,0.00,,,0.13,,2013-07-11 06:01:00,
2013-07-11 02:12:00,75.0,73.0,29.81,North,0,0.0,3.0,93,0.00,,,0.13,,2013-07-11 06:12:00,
2013-07-11 02:22:00,74.0,72.0,29.81,North,0,0.0,9.0,93,0.00,,,0.13,,2013-07-11 06:22:00,
2013-07-11 02:32:00,74.0,72.0,29.81,North,0,0.0,4.0,92,0.00,,,0.13,,2013-07-11 06:32:00,
2013-07-11 02:43:00,74.0,72.0,29.81,North,0,0.0,5.0,92,0.00,,,0.13,,2013-07-11 06:43:00,
2013-07-11 02:52:00,74.0,71.0,29.81,North,0,0.0,5.0,91,0.00,,,0.13,,2013-07-11 06:52:00,
2013-07-11 03:22:00,74.0,71.0,29.80,North,0,0.0,5.0,91,0.00,,,0.13,,2013-07-11 07:22:00,
2013-07-11 03:45:00,74.0,71.0,29.80,North,0,0.0,3.0,91,0.00,,,0.13,,2013-07-11 07:45:00,
2013-07-11 03:53:00,74.0,71.0,29.80,North,0,0.0,5.0,91,0.00,,,0.13,,2013-07-11 07:53:00,
2013-07-11 04:02:00,73.0,71.0,29.81,North,0,0.0,2.0,92,0.00,,,0.13,,2013-07-11 08:02:00,
2013-07-11 04:22:00,73.0,71.0,29.81,North,0,0.0,2.0,92,0.00,,,0.13,,2013-07-11 08:22:00,
2013-07-11 04:34:00,73.0,71.0,29.81,North,0,0.0,2.0,92,0.00,,,0.13,,2013-07-11 08:34:00,
2013-07-11 04:43:00,73.0,71.0,29.81,North,0,0.0,0.0,93,0.00,,,0.13,,2013-07-11 08:43:00,
2013-07-11 05:03:00,73.0,71.0,29.81,North,0,0.0,1.0,93,0.00,,,0.13,,2013-07-11 09:03:00,
2013-07-11 05:33:00,73.0,71.0,29.81,North,0,0.0,2.0,94,0.00,,,0.13,,2013-07-11 09:33:00,
2013-07-11 05:43:00,73.0,71.0,29.82,North,0,0.0,1.0,94,0.00,,,0.13,,2013-07-11 09:43:00,
2013-07-11 05:53:00,73.0,71.0,29.82,North,0,0.0,2.0,94,0.00,,,0.13,,2013-07-11 09:53:00,
2013-07-11 06:43:00,73.0,71.0,29.83,North,0,0.0,2.0,95,0.00,,,0.13,,2013-07-11 10:43:00,
2013-07-11 06:52:00,73.0,71.0,29.84,North,0,0.0,2.0,95,0.00,,,0.13,,2013-07-11 10:52:00,
2013-07-11 07:02:00,72.0,70.0,29.85,North,0,0.0,3.0,95,0.00,,,0.13,,2013-07-11 11:02:00,
2013-07-11 07:22:00,72.0,70.0,29.85,North,0,0.0,1.0,95,0.00,,,0.13,,2013-07-11 11:22:00,
2013-07-11 07:32:00,72.0,70.0,29.85,North,0,0.0,0.0,95,0.00,,,0.13,,2013-07-11 11:32:00,
2013-07-11 07:43:00,72.0,70.0,29.86,North,0,0.0,0.0,95,0.01,,,0.14,,2013-07-11 11:43:00,
2013-07-11 07:53:00,72.0,70.0,29.86,North,0,0.0,0.0,95,0.01,,,0.14,,2013-07-11 11:53:00,
2013-07-11 08:01:00,72.0,70.0,29.86,North,0,0.0,0.0,95,0.01,,,0.14,,2013-07-11 12:01:00,
2013-07-11 08:12:00,72.0,71.0,29.86,North,0,0.0,0.0,96,0.02,,,0.15,,2013-07-11 12:12:00,
2013-07-11 08:22:00,72.0,71.0,29.86,North,0,0.0,0.0,96,0.02,,,0.15,,2013-07-11 12:22:00,
2013-07-11 08:33:00,72.0,71.0,29.86,North,0,0.0,0.0,96,0.02,,,0.15,,2013-07-11 12:33:00,
2013-07-11 08:43:00,73.0,72.0,29.87,North,0,0.0,0.0,96,0.01,,,0.15,,2013-07-11 12:43:00,
2013-07-11 08:55:00,73.0,72.0,29.87,North,0,0.0,1.0,96,0.01,,,0.15,,2013-07-11 12:55:00,
2013-07-11 09:02:00,73.0,72.0,29.87,North,0,0.0,0.0,96,0.01,,,0.15,,2013-07-11 13:02:00,
2013-07-11 09:34:00,73.0,72.0,29.88,North,0,0.0,0.0,96,0.00,,,0.15,,2013-07-11 13:34:00,
2013-07-11 10:05:00,73.0,72.0,29.88,North,0,0.0,2.0,96,0.00,,,0.15,,2013-07-11 14:05:00,
2013-07-11 10:35:00,72.0,70.0,29.89,North,0,0.0,3.0,95,0.00,,,0.15,,2013-07-11 14:35:00,
2013-07-11 10:54:00,72.0,70.0,29.89,North,0,0.0,2.0,95,0.00,,,0.15,,2013-07-11 14:54:00,
2013-07-11 11:06:00,72.0,70.0,29.89,North,0,0.0,4.0,95,0.00,,,0.15,,2013-07-11 15:06:00,
2013-07-11 11:14:00,73.0,71.0,29.89,North,0,0.0,3.0,94,0.00,,,0.15,,2013-07-11 15:14:00,
2013-07-11 11:24:00,74.0,72.0,29.89,North,0,0.0,3.0,93,0.00,,,0.15,,2013-07-11 15:24:00,
2013-07-11 12:35:00,78.0,72.0,29.88,North,0,0.0,4.0,81,0.00,,,0.06,,2013-07-11 16:35:00,
2013-07-11 12:47:00,79.0,72.0,29.88,North,0,0.0,2.0,80,0.00,,,0.04,,2013-07-11 16:47:00,
2013-07-11 12:55:00,80.0,73.0,29.88,North,0,0.0,2.0,79,0.00,,,0.03,,2013-07-11 16:55:00,
2013-07-11 13:03:00,80.0,72.0,29.88,North,0,0.0,2.0,78,0.00,,,0.02,,2013-07-11 17:03:00,
2013-07-11 13:47:00,81.0,72.0,29.88,North,0,0.0,2.0,75,0.00,,,0.02,,2013-07-11 17:47:00,
2013-07-11 13:53:00,80.0,73.0,29.88,North,0,0.0,2.0,80,0.00,,,0.02,,2013-07-11 17:53:00,
2013-07-11 14:05:00,80.0,72.0,29.87,North,0,0.0,4.0,78,0.00,,,0.02,,2013-07-11 18:05:00,
2013-07-11 14:15:00,81.0,73.0,29.87,North,0,0.0,4.0,76,0.00,,,0.02,,2013-07-11 18:15:00,
2013-07-11 14:35:00,80.0,72.0,29.87,North,0,0.0,1.0,78,0.00,,,0.02,,2013-07-11 18:35:00,
2013-07-11 14:54:00,81.0,74.0,29.87,North,0,0.0,4.0,79,0.00,,,0.02,,2013-07-11 18:54:00,
2013-07-11 15:05:00,81.0,72.0,29.87,North,0,0.0,1.0,75,0.00,,,0.02,,2013-07-11 19:05:00,
2013-07-11 15:39:00,82.0,73.0,29.86,North,0,0.0,2.0,74,0.00,,,0.02,,2013-07-11 19:39:00,
2013-07-11 15:45:00,81.0,72.0,29.86,North,0,0.0,1.0,73,0.00,,,0.02,,2013-07-11 19:45:00,
2013-07-11 15:56:00,80.0,72.0,29.86,North,0,0.0,1.0,78,0.00,,,0.02,,2013-07-11 19:56:00,
2013-07-11 16:07:00,82.0,72.0,29.85,North,0,0.0,2.0,73,0.00,,,0.02,,2013-07-11 20:07:00,
2013-07-11 16:13:00,82.0,74.0,29.85,North,0,0.0,1.0,76,0.00,,,0.02,,2013-07-11 20:13:00,
2013-07-11 16:47:00,83.0,74.0,29.85,North,0,0.0,2.0,74,0.00,,,0.02,,2013-07-11 20:47:00,
2013-07-11 16:54:00,82.0,72.0,29.85,North,0,0.0,1.0,73,0.00,,,0.02,,2013-07-11 20:54:00,
2013-07-11 17:05:00,81.0,73.0,29.85,North,0,0.0,0.0,77,0.00,,,0.02,,2013-07-11 21:05:00,
2013-07-11 17:15:00,81.0,72.0,29.85,North,0,0.0,3.0,75,0.00,,,0.02,,2013-07-11 21:15:00,
2013-07-11 17:45:00,81.0,72.0,29.85,North,0,0.0,1.0,75,0.00,,,0.02,,2013-07-11 21:45:00,
2013-07-11 17:56:00,81.0,72.0,29.85,North,0,0.0,0.0,73,0.00,,,0.02,,2013-07-11 21:56:00,
2013-07-11 18:35:00,81.0,72.0,29.86,North,0,0.0,0.0,75,0.00,,,0.02,,2013-07-11 22:35:00,
2013-07-11 18:47:00,81.0,72.0,29.86,North,0,0.0,1.0,75,0.00,,,0.02,,2013-07-11 22:47:00,
2013-07-11 18:54:00,80.0,72.0,29.86,North,0,0.0,0.0,77,0.00,,,0.02,,2013-07-11 22:54:00,
2013-07-11 19:06:00,80.0,72.0,29.87,North,0,0.0,0.0,77,0.00,,,0.02,,2013-07-11 23:06:00,
2013-07-11 19:26:00,80.0,72.0,29.87,North,0,0.0,0.0,77,0.00,,,0.02,,2013-07-11 23:26:00,
2013-07-11 19:36:00,80.0,72.0,29.88,North,0,0.0,0.0,78,0.00,,,0.02,,2013-07-11 23:36:00,
2013-07-11 19:47:00,80.0,73.0,29.88,North,0,0.0,0.0,79,0.00,,,0.02,,2013-07-11 23:47:00,
2013-07-11 19:55:00,79.0,72.0,29.88,North,0,0.0,0.0,79,0.00,,,0.02,,2013-07-11 23:55:00,
2013-07-11 20:05:00,79.0,72.0,29.88,North,0,0.0,0.0,79,0.00,,,0.02,,2013-07-12 00:05:00,
2013-07-11 20:26:00,78.0,71.0,29.88,North,0,0.0,0.0,80,0.00,,,0.02,,2013-07-12 00:26:00,
2013-07-11 20:37:00,78.0,72.0,29.88,North,0,0.0,0.0,81,0.00,,,0.02,,2013-07-12 00:37:00,
2013-07-11 20:55:00,77.0,71.0,29.89,North,0,0.0,0.0,81,0.00,,,0.02,,2013-07-12 00:55:00,
2013-07-11 21:05:00,76.0,70.0,29.89,North,0,0.0,0.0,82,0.00,,,0.02,,2013-07-12 01:05:00,
2013-07-11 21:37:00,75.0,69.0,29.89,North,0,0.0,0.0,82,0.00,,,0.02,,2013-07-12 01:37:00,
2013-07-11 22:16:00,74.0,68.0,29.90,North,0,0.0,0.0,81,0.00,,,0.02,,2013-07-12 02:16:00,
2013-07-11 22:45:00,73.0,66.0,29.90,North,0,0.0,1.0,80,0.00,,,0.02,,2013-07-12 02:45:00,
2013-07-11 22:54:00,73.0,66.0,29.90,North,0,0.0,1.0,80,0.00,,,0.02,,2013-07-12 02:54:00,
2013-07-11 23:04:00,73.0,66.0,29.90,North,0,0.0,2.0,80,0.00,,,0.02,,2013-07-12 03:04:00,
2013-07-11 23:37:00,72.0,65.0,29.90,North,0,0.0,0.0,80,0.00,,,0.02,,2013-07-12 03:37:00,
2013-07-11 23:45:00,72.0,66.0,29.90,North,0,0.0,0.0,81,0.00,,,0.02,,2013-07-12 03:45:00,
2013-07-11 23:54:00,72.0,66.0,29.90,North,0,0.0,0.0,81,0.00,,,0.02,,2013-07-12 03:54:00,